Terminal Aerodrome Forecast
Issued by NWS Wakefield, VA

Home | Current Version | Previous Version | Text Only | Print | Product List | Glossary On
Versions: 1 2 3 4 5 6 7 8 9 10 11 12 13 14 15 16 17 18
000
FTUS41 KAKQ 201700
TAFORF
TAF
KORF 201728Z 2018/2118 05018G30KT P6SM OVC035
      TEMPO 2019/2021 -RA OVC022
     FM202300 04016G25KT P6SM BKN035 BKN060
     FM211200 03020KT P6SM BKN040=

USA.gov is the U.S. government's official web portal to all federal, state and local government web resources and services.